Startpagina
METAR-TAF:

METAR-TAF

Vliegvelden :

Luchthaven Dakar

Dakar, Senegal

breedte: 14-44N, lengte: 017-30W, hoogte: 27 m

Actueel weer

Dit bericht is 32 minuten geleden gemaakt, om 14:00 UTC
Wind 10 kt uit het noordnoordoosten
Temperatuur 25°C
Vochtigheid 74%
Druk 1013 hPa
Zicht 10 km of meer
Weinig wolken op 1300 ft

METAR: GOOY 191400Z 02010KT 9999 FEW013 25/20 Q1013

Tijdstip: 14:32 (14:32 UTC)

Verwachting

Dit bericht is 3 uur en het 2 minuten geleden gemaakt, om 11:30 UTC
Verwachting geldig van 19 om 12 UTC tot 20 om 18 UTC
Wind 10 kt uit het noorden
Zicht 10 km of meer
geen wolken onder 1500 m en geen cumulonimbus

TAF: GOOY 191130Z 1912/2018 36010KT CAVOK

Waarnemingen en weersverwachtingen van meer dan 4000 vliegvelden (METAR en TAF).

De beschikbare stations zijn de gele en rode punten op de kaart.

Ga met uw muis naar het station om de naam te zien.

Klik dan om waarnemingen en weersverwachtingen te zien.

kaart wijzigen: klik op de groene knoppen met een zwart kruis om in te zoomen, op de groene knop met een streepje om uit te zoomen of op de groene pijlen voor aangrenzende kaarten.


METAR-TAF: